Latest Coastal Weather Observations for Yanakie

IDV60701

Issued at 1:51 am EDT Saturday 25 February 2017 (issued every 10 minutes, with the page automatically refreshed every 10 minutes)

About coastal observations | Map of coastal stations | Coastal observations for VIC | Marine services | Other Formats
Station Details ID: 085301 Name: YANAKIE Lat: -38.81 Lon: 146.19 Height: 13.3 m
Data from the previous 72 hours. | See also: Recent months at Yanakie
Date/Time
EDT
Temp
°C
Wind Pressure Rain since
9am
mm
Weather Cloud Vis
km
Sea
Height
m
Swell
Dir  Spd
kts
Gust
kts
hPa Trend Height
m
Period
s
Dir
25/01:30am 13.9 SW 8 11 1024.3 - 0.0 - - - - - - -
25/01:00am 13.7 SW 7 10 1024.4 - 0.0 - - - - - - -
25/12:30am 13.6 SW 7 9 1024.5 - 0.0 - - - - - - -
25/12:00am 14.4 SW 8 11 1024.6 - 0.0 - - - - - - -
 
Date/Time
EDT
Temp
°C
Wind Pressure Rain since
9am
mm
Weather Cloud Vis
km
Sea
Height
m
Swell
Dir  Spd
kts
Gust
kts
hPa Trend Height
m
Period
s
Dir
24/11:30pm 14.7 WSW 8 11 1024.7 - 0.0 - - - - - - -
24/11:00pm 14.2 WSW 6 9 1024.8 - 0.0 - - - - - - -
24/10:30pm 14.6 SW 7 10 1025.1 - 0.0 - - - - - - -
24/10:00pm 14.8 WSW 9 12 1025.1 - 0.0 - - - - - - -
24/09:30pm 14.9 WSW 9 13 1025.1 - 0.0 - - - - - - -
24/09:00pm 14.9 SW 10 13 1024.7 - 0.0 - - - - - - -
24/08:30pm 14.9 WSW 8 12 1024.4 - 0.0 - - - - - - -
24/08:00pm 15.3 WSW 9 12 1024.3 - 0.0 - - - - - - -
24/07:30pm 16.3 WSW 11 15 1024.2 - 0.0 - - - - - - -
24/07:00pm 17.1 WSW 12 15 1024.1 - 0.0 - - - - - - -
24/06:30pm 17.9 WSW 11 15 1024.1 - 0.0 - - - - - - -
24/06:00pm 18.1 SW 12 16 1024.1 - 0.0 - - - - - - -
24/05:30pm 17.4 SW 12 17 1024.1 - 0.0 - - - - - - -
24/05:00pm 19.0 SW 14 19 1023.9 - 0.0 - - - - - - -
24/04:30pm 18.2 WSW 13 17 1024.0 - 0.0 - - - - - - -
24/04:00pm 17.5 SW 16 21 1024.2 - 0.0 - - - - - - -
24/03:30pm 18.9 WSW 13 18 1024.1 - 0.0 - - - - - - -
24/03:00pm 17.2 SW 14 19 1024.2 - 0.0 - - - - - - -
24/02:30pm 18.4 WSW 14 18 1024.3 - 0.0 - - - - - - -
24/02:00pm 16.9 SW 12 17 1024.4 - 0.0 - - - - - - -
24/01:30pm 17.5 WSW 11 15 1024.3 - 0.0 - - - - - - -
24/01:00pm 18.4 WSW 11 15 1024.2 - 0.0 - - - - - - -
24/12:30pm 17.1 WSW 9 12 1024.5 - 0.0 - - - - - - -
24/12:00pm 17.8 WSW 10 15 1024.7 - 0.0 - - - - - - -
24/11:30am 17.4 WSW 12 16 1024.7 - 0.0 - - - - - - -
24/11:00am 17.4 WSW 12 16 1024.6 - 0.0 - - - - - - -
24/10:30am 17.5 SW 12 15 1024.4 - 0.0 - - - - - - -
24/10:00am 17.3 SW 11 14 1024.2 - 0.0 - - - - - - -
24/09:30am 16.7 SW 11 14 1023.9 - 0.0 - - - - - - -
24/09:00am 16.1 SW 10 15 1023.9 - 0.0 - - - - - - -
24/08:30am 15.8 SW 10 14 1023.6 - 0.0 - - - - - - -
24/08:00am 15.9 SW 10 14 1023.2 - 0.0 - - - - - - -
24/07:30am 15.6 SW 9 12 1023.0 - 0.0 - - - - - - -
24/07:00am 15.6 SW 9 13 1022.7 - 0.0 - - - - - - -
24/06:30am 15.7 WSW 9 14 1022.4 - 0.0 - - - - - - -
24/06:00am 15.6 SW 7 10 1022.0 - 0.0 - - - - - - -
24/05:30am 15.5 WSW 8 11 1021.9 - 0.0 - - - - - - -
24/05:00am 15.3 WSW 6 9 1021.6 - 0.0 - - - - - - -
24/04:30am 15.1 WSW 7 12 1021.8 - 0.0 - - - - - - -
24/04:00am 15.6 SW 7 9 1021.9 - 0.0 - - - - - - -
24/03:30am 15.8 WSW 9 13 1022.0 - 0.0 - - - - - - -
24/03:00am 15.7 SW 10 14 1022.0 - 0.0 - - - - - - -
24/02:30am 15.3 WSW 11 16 1022.1 - 0.0 - - - - - - -
24/02:00am 15.9 SW 10 13 1022.0 - 0.0 - - - - - - -
24/01:30am 15.9 SW 10 16 1022.3 - 0.0 - - - - - - -
24/01:00am 16.6 SW 11 14 1022.3 - 0.0 - - - - - - -
24/12:30am 16.7 SW 10 13 1022.2 - 0.0 - - - - - - -
24/12:00am 16.7 SW 11 15 1022.1 - 0.0 - - - - - - -
 
Date/Time
EDT
Temp
°C
Wind Pressure Rain since
9am
mm
Weather Cloud Vis
km
Sea
Height
m
Swell
Dir  Spd
kts
Gust
kts
hPa Trend Height
m
Period
s
Dir
23/11:30pm 16.8 SW 11 15 1021.8 - 0.0 - - - - - - -
23/11:00pm 16.5 SW 9 11 1021.8 - 0.0 - - - - - - -
23/10:30pm 17.0 SW 10 13 1021.7 - 0.0 - - - - - - -
23/10:00pm 17.0 SSW 8 11 1021.7 - 0.0 - - - - - - -
23/09:30pm 16.9 SW 10 14 1021.3 - 0.0 - - - - - - -
23/09:00pm 16.9 SW 11 15 1020.8 - 0.0 - - - - - - -
23/08:30pm 17.1 SW 11 16 1020.5 - 0.0 - - - - - - -
23/08:00pm 17.4 SW 11 17 1020.0 - 0.0 - - - - - - -
23/07:30pm 18.3 SW 12 16 1019.5 - 0.0 - - - - - - -
23/07:00pm 19.0 SW 13 17 1019.2 - 0.0 - - - - - - -
23/06:30pm 19.8 SW 13 16 1019.0 - 0.0 - - - - - - -
23/06:00pm 20.1 SW 13 17 1018.7 - 0.0 - - - - - - -
23/05:30pm 20.9 WSW 14 19 1018.2 - 0.0 - - - - - - -
23/05:00pm 21.0 WSW 14 20 1017.9 - 0.0 - - - - - - -
23/04:30pm 21.3 WSW 16 20 1017.9 - 0.0 - - - - - - -
23/04:00pm 21.9 WSW 16 23 1017.7 - 0.0 - - - - - - -
23/03:30pm 21.7 WSW 17 23 1017.5 - 0.0 - - - - - - -
23/03:00pm 21.8 WSW 17 25 1017.5 - 0.0 - - - - - - -
23/02:30pm 22.5 WSW 15 21 1017.4 - 0.0 - - - - - - -
23/02:00pm 22.7 W 17 22 1017.3 - 0.0 - - - - - - -
23/01:30pm 22.6 W 17 25 1017.3 - 0.0 - - - - - - -
23/01:00pm 23.5 W 18 24 1017.3 - 0.0 - - - - - - -
23/12:30pm 21.4 W 17 22 1017.3 - 0.0 - - - - - - -
23/12:00pm 22.1 W 15 22 1017.0 - 0.0 - - - - - - -
23/11:30am 22.1 W 16 22 1016.8 - 0.0 - - - - - - -
23/11:00am 22.1 W 15 21 1016.6 - 0.0 - - - - - - -
23/10:30am 21.8 WNW 11 15 1016.4 - 0.0 - - - - - - -
23/10:00am 21.5 WNW 14 21 1016.3 - 0.0 - - - - - - -
23/09:30am 20.0 WNW 13 17 1015.9 - 0.0 - - - - - - -
23/09:00am 19.3 WNW 11 15 1015.6 - 0.0 - - - - - - -
23/08:30am 18.0 WNW 11 15 1015.3 - 0.0 - - - - - - -
23/08:00am 16.9 WNW 8 11 1014.8 - 0.0 - - - - - - -
23/07:30am 14.7 NW 4 5 1014.3 - 0.0 - - - - - - -
23/07:00am 13.9 NNW 4 5 1013.7 - 0.0 - - - - - - -
23/06:30am 14.0 NW 5 6 1013.3 - 0.0 - - - - - - -
23/06:00am 14.5 NNW 6 7 1012.9 - 0.0 - - - - - - -
23/05:30am 14.0 NNW 6 7 1012.7 - 0.0 - - - - - - -
23/05:00am 13.0 NW 4 6 1012.4 - 0.0 - - - - - - -
23/04:30am 13.1 WNW 5 5 1012.2 - 0.0 - - - - - - -
23/04:00am 14.3 WSW 3 4 1012.1 - 0.0 - - - - - - -
23/03:30am 15.0 WSW 3 3 1012.0 - 0.0 - - - - - - -
23/03:00am 16.0 WSW 4 5 1011.9 - 0.0 - - - - - - -
23/02:30am 17.9 SW 8 11 1011.7 - 0.0 - - - - - - -
23/02:00am 18.0 SW 8 11 1011.4 - 0.0 - - - - - - -
23/01:30am 18.5 SW 9 12 1011.2 - 0.0 - - - - - - -
23/01:00am 19.3 WSW 12 16 1010.6 - 0.0 - - - - - - -
23/12:30am 18.6 W 6 13 1009.8 - 0.0 - - - - - - -
23/12:00am 19.4 N 8 21 1009.4 - 0.0 - - - - - - -
 
Date/Time
EDT
Temp
°C
Wind Pressure Rain since
9am
mm
Weather Cloud Vis
km
Sea
Height
m
Swell
Dir  Spd
kts
Gust
kts
hPa Trend Height
m
Period
s
Dir
22/11:30pm 19.7 ENE 10 14 1008.3 - 0.0 - - - - - - -
22/11:00pm 19.3 E 8 12 1009.1 - 0.0 - - - - - - -
22/10:30pm 19.5 E 8 13 1009.4 - 0.0 - - - - - - -
22/10:00pm 20.1 ENE 12 17 1009.5 - 0.0 - - - - - - -
22/09:30pm 20.1 E 8 13 1009.8 - 0.0 - - - - - - -
22/09:00pm 20.5 E 9 15 1009.9 - 0.0 - - - - - - -
22/08:30pm 19.3 ESE 7 11 1010.1 - 0.0 - - - - - - -
22/08:00pm 20.3 E 9 13 1010.0 - 0.0 - - - - - - -
22/07:30pm 21.0 E 9 16 1010.2 - 0.0 - - - - - - -
22/07:00pm 22.0 E 9 12 1010.3 - 0.0 - - - - - - -
22/06:30pm 22.6 E 10 15 1010.3 - 0.0 - - - - - - -
22/06:00pm 22.5 ESE 9 13 1010.5 - 0.0 - - - - - - -
22/05:30pm 24.1 E 9 15 1010.8 - 0.0 - - - - - - -
22/05:00pm 24.4 E 10 16 1010.8 - 0.0 - - - - - - -
22/04:30pm 24.6 E 11 17 1010.8 - 0.0 - - - - - - -
22/04:00pm 24.7 E 10 15 1011.5 - 0.0 - - - - - - -
22/03:30pm 24.6 ENE 10 14 1012.0 - 0.0 - - - - - - -
22/03:00pm 24.3 ENE 10 14 1012.5 - 0.0 - - - - - - -
22/02:30pm 25.1 E 9 13 1012.9 - 0.0 - - - - - - -
22/02:00pm 24.4 ENE 9 12 1013.4 - 0.0 - - - - - - -
22/01:30pm 24.2 ENE 8 11 1013.7 - 0.0 - - - - - - -
22/01:00pm 23.7 E 7 10 1014.3 - 0.0 - - - - - - -
22/12:30pm 23.2 E 8 10 1014.7 - 0.0 - - - - - - -
22/12:00pm 22.4 E 8 10 1014.9 - 0.0 - - - - - - -
22/11:30am 21.7 ENE 9 13 1015.3 - 0.0 - - - - - - -
22/11:00am 20.8 ENE 9 14 1015.8 - 0.0 - - - - - - -
22/10:30am 20.4 E 8 13 1015.9 - 0.0 - - - - - - -
22/10:00am 19.7 ENE 9 13 1016.2 - 0.0 - - - - - - -
22/09:30am 18.8 ENE 10 16 1016.5 - 0.0 - - - - - - -
22/09:00am 17.9 ENE 10 16 1016.5 - 0.6 - - - - - - -
22/08:30am 17.3 ENE 11 15 1016.4 - 0.6 - - - - - - -
22/08:00am 16.6 ENE 10 15 1016.4 - 0.6 - - - - - - -
22/07:30am 15.8 ENE 9 14 1016.2 - 0.6 - - - - - - -
22/07:00am 14.7 ENE 7 10 1016.3 - 0.6 - - - - - - -
22/06:30am 14.7 ENE 7 10 1016.2 - 0.6 - - - - - - -
22/06:00am 14.7 ENE 8 11 1016.3 - 0.6 - - - - - - -
22/05:30am 14.7 ENE 9 11 1016.4 - 0.6 - - - - - - -
22/05:00am 15.0 ENE 9 13 1016.4 - 0.6 - - - - - - -
22/04:30am 14.9 ENE 8 11 1016.6 - 0.6 - - - - - - -
22/04:00am 14.6 ENE 6 9 1016.8 - 0.6 - - - - - - -
22/03:30am 14.6 ENE 7 9 1017.1 - 0.6 - - - - - - -
22/03:00am 14.9 ENE 8 12 1017.5 - 0.6 - - - - - - -
22/02:30am 15.1 ENE 11 16 1017.7 - 0.6 - - - - - - -
22/02:00am 15.1 ENE 11 14 1018.2 - 0.6 - - - - - - -

Other Formats:

Comma delimited format used in spreadsheet applications
http://www.bom.gov.au/fwo/IDV60701/IDV60701.94911.axf

JavaScript Object Notation format (JSON) in row-major order
http://www.bom.gov.au/fwo/IDV60701/IDV60701.94911.json